sensor_id;sensor_type;location;lat;lon;timestamp;P1;durP1;ratioP1;P2;durP2;ratioP2
55784;SDS011;41709;52.536;5.688;2023-07-08T00:00:27;5.47;;;3.22;;
55784;SDS011;41709;52.536;5.688;2023-07-08T00:02:53;6.93;;;3.50;;
55784;SDS011;41709;52.536;5.688;2023-07-08T00:05:19;5.30;;;3.83;;
55784;SDS011;41709;52.536;5.688;2023-07-08T00:07:46;6.07;;;3.08;;
55784;SDS011;41709;52.536;5.688;2023-07-08T00:10:13;6.30;;;3.28;;
55784;SDS011;41709;52.536;5.688;2023-07-08T00:12:45;6.40;;;3.47;;
55784;SDS011;41709;52.536;5.688;2023-07-08T00:15:13;6.88;;;3.20;;
55784;SDS011;41709;52.536;5.688;2023-07-08T00:17:39;7.15;;;4.03;;
55784;SDS011;41709;52.536;5.688;2023-07-08T00:20:16;4.45;;;3.03;;
55784;SDS011;41709;52.536;5.688;2023-07-08T00:22:45;10.73;;;3.90;;
55784;SDS011;41709;52.536;5.688;2023-07-08T00:25:17;4.65;;;3.38;;
55784;SDS011;41709;52.536;5.688;2023-07-08T00:27:46;13.93;;;3.40;;
55784;SDS011;41709;52.536;5.688;2023-07-08T00:30:25;8.00;;;3.90;;
55784;SDS011;41709;52.536;5.688;2023-07-08T00:32:53;4.85;;;3.33;;
55784;SDS011;41709;52.536;5.688;2023-07-08T00:35:33;6.30;;;3.58;;
55784;SDS011;41709;52.536;5.688;2023-07-08T00:38:00;7.22;;;3.28;;
55784;SDS011;41709;52.536;5.688;2023-07-08T00:40:27;5.45;;;3.28;;
55784;SDS011;41709;52.536;5.688;2023-07-08T00:42:54;7.30;;;3.88;;
55784;SDS011;41709;52.536;5.688;2023-07-08T00:45:29;5.00;;;3.33;;
55784;SDS011;41709;52.536;5.688;2023-07-08T00:48:00;5.75;;;3.42;;
55784;SDS011;41709;52.536;5.688;2023-07-08T00:50:36;5.43;;;3.75;;
55784;SDS011;41709;52.536;5.688;2023-07-08T00:55:58;6.65;;;3.47;;
55784;SDS011;41709;52.536;5.688;2023-07-08T00:58:25;6.38;;;3.13;;
55784;SDS011;41709;52.536;5.688;2023-07-08T01:00:56;6.20;;;3.38;;
55784;SDS011;41709;52.536;5.688;2023-07-08T01:03:24;5.13;;;3.70;;
55784;SDS011;41709;52.536;5.688;2023-07-08T01:05:52;9.23;;;4.03;;
55784;SDS011;41709;52.536;5.688;2023-07-08T01:08:21;5.60;;;3.58;;
55784;SDS011;41709;52.536;5.688;2023-07-08T01:10:54;7.43;;;3.83;;
55784;SDS011;41709;52.536;5.688;2023-07-08T01:13:28;5.43;;;3.55;;
55784;SDS011;41709;52.536;5.688;2023-07-08T01:15:59;6.20;;;3.90;;
55784;SDS011;41709;52.536;5.688;2023-07-08T01:18:25;11.60;;;5.22;;
55784;SDS011;41709;52.536;5.688;2023-07-08T01:20:51;7.15;;;4.10;;
55784;SDS011;41709;52.536;5.688;2023-07-08T01:23:20;8.48;;;4.28;;
55784;SDS011;41709;52.536;5.688;2023-07-08T01:25:46;10.00;;;4.30;;
55784;SDS011;41709;52.536;5.688;2023-07-08T01:28:12;8.82;;;3.58;;
55784;SDS011;41709;52.536;5.688;2023-07-08T01:30:40;5.50;;;3.33;;
55784;SDS011;41709;52.536;5.688;2023-07-08T01:33:20;4.82;;;3.88;;
55784;SDS011;41709;52.536;5.688;2023-07-08T01:35:49;5.97;;;3.65;;
55784;SDS011;41709;52.536;5.688;2023-07-08T01:38:16;7.65;;;4.50;;
55784;SDS011;41709;52.536;5.688;2023-07-08T01:40:50;9.25;;;4.47;;
55784;SDS011;41709;52.536;5.688;2023-07-08T01:43:21;11.40;;;4.32;;
55784;SDS011;41709;52.536;5.688;2023-07-08T01:45:47;6.38;;;4.28;;
55784;SDS011;41709;52.536;5.688;2023-07-08T01:48:15;7.47;;;4.35;;
55784;SDS011;41709;52.536;5.688;2023-07-08T01:51:00;7.28;;;4.13;;
55784;SDS011;41709;52.536;5.688;2023-07-08T01:53:33;7.40;;;4.45;;
55784;SDS011;41709;52.536;5.688;2023-07-08T01:56:06;10.38;;;4.30;;
55784;SDS011;41709;52.536;5.688;2023-07-08T01:58:33;9.18;;;4.63;;
55784;SDS011;41709;52.536;5.688;2023-07-08T02:00:59;6.10;;;3.80;;
55784;SDS011;41709;52.536;5.688;2023-07-08T02:03:25;5.40;;;4.40;;
55784;SDS011;41709;52.536;5.688;2023-07-08T02:05:51;6.45;;;4.45;;
55784;SDS011;41709;52.536;5.688;2023-07-08T02:08:17;6.28;;;4.18;;
55784;SDS011;41709;52.536;5.688;2023-07-08T02:10:43;7.43;;;4.50;;
55784;SDS011;41709;52.536;5.688;2023-07-08T02:13:14;5.75;;;3.90;;
55784;SDS011;41709;52.536;5.688;2023-07-08T02:15:39;6.28;;;4.35;;
55784;SDS011;41709;52.536;5.688;2023-07-08T02:18:05;5.57;;;4.22;;
55784;SDS011;41709;52.536;5.688;2023-07-08T02:20:31;6.63;;;4.32;;
55784;SDS011;41709;52.536;5.688;2023-07-08T02:22:56;10.52;;;4.50;;
55784;SDS011;41709;52.536;5.688;2023-07-08T02:25:22;8.23;;;4.20;;
55784;SDS011;41709;52.536;5.688;2023-07-08T02:27:48;5.03;;;4.05;;
55784;SDS011;41709;52.536;5.688;2023-07-08T02:30:13;7.25;;;4.53;;
55784;SDS011;41709;52.536;5.688;2023-07-08T02:32:39;6.03;;;4.00;;
55784;SDS011;41709;52.536;5.688;2023-07-08T02:35:06;8.13;;;4.35;;
55784;SDS011;41709;52.536;5.688;2023-07-08T02:37:33;9.45;;;4.93;;
55784;SDS011;41709;52.536;5.688;2023-07-08T02:39:59;4.95;;;3.58;;
55784;SDS011;41709;52.536;5.688;2023-07-08T02:42:25;5.53;;;4.05;;
55784;SDS011;41709;52.536;5.688;2023-07-08T02:44:51;8.55;;;4.43;;
55784;SDS011;41709;52.536;5.688;2023-07-08T02:47:17;5.85;;;3.90;;
55784;SDS011;41709;52.536;5.688;2023-07-08T02:49:42;6.90;;;4.40;;
55784;SDS011;41709;52.536;5.688;2023-07-08T02:52:08;7.28;;;4.07;;
55784;SDS011;41709;52.536;5.688;2023-07-08T02:54:33;6.78;;;4.28;;
55784;SDS011;41709;52.536;5.688;2023-07-08T02:56:59;6.25;;;4.07;;
55784;SDS011;41709;52.536;5.688;2023-07-08T02:59:25;9.23;;;4.80;;
55784;SDS011;41709;52.536;5.688;2023-07-08T03:01:53;5.60;;;4.78;;
55784;SDS011;41709;52.536;5.688;2023-07-08T03:04:18;7.40;;;4.72;;
55784;SDS011;41709;52.536;5.688;2023-07-08T03:06:47;6.93;;;4.28;;
55784;SDS011;41709;52.536;5.688;2023-07-08T03:09:14;9.18;;;4.95;;
55784;SDS011;41709;52.536;5.688;2023-07-08T03:11:40;6.25;;;4.03;;
55784;SDS011;41709;52.536;5.688;2023-07-08T03:14:06;5.35;;;4.22;;
55784;SDS011;41709;52.536;5.688;2023-07-08T03:16:31;6.63;;;4.40;;
55784;SDS011;41709;52.536;5.688;2023-07-08T03:18:57;6.82;;;4.40;;
55784;SDS011;41709;52.536;5.688;2023-07-08T03:21:23;7.43;;;4.68;;
55784;SDS011;41709;52.536;5.688;2023-07-08T03:23:49;6.80;;;4.60;;
55784;SDS011;41709;52.536;5.688;2023-07-08T03:26:16;5.93;;;4.07;;
55784;SDS011;41709;52.536;5.688;2023-07-08T03:28:47;7.50;;;4.78;;
55784;SDS011;41709;52.536;5.688;2023-07-08T03:31:13;8.18;;;4.80;;
55784;SDS011;41709;52.536;5.688;2023-07-08T03:33:38;8.68;;;5.00;;
55784;SDS011;41709;52.536;5.688;2023-07-08T03:36:04;6.63;;;4.20;;
55784;SDS011;41709;52.536;5.688;2023-07-08T03:38:37;6.82;;;4.60;;
55784;SDS011;41709;52.536;5.688;2023-07-08T03:41:02;8.48;;;4.97;;
55784;SDS011;41709;52.536;5.688;2023-07-08T03:43:28;8.32;;;4.70;;
55784;SDS011;41709;52.536;5.688;2023-07-08T03:45:54;7.93;;;4.40;;
55784;SDS011;41709;52.536;5.688;2023-07-08T03:48:20;6.80;;;4.80;;
55784;SDS011;41709;52.536;5.688;2023-07-08T03:50:46;7.03;;;4.35;;
55784;SDS011;41709;52.536;5.688;2023-07-08T03:53:11;8.00;;;4.60;;
55784;SDS011;41709;52.536;5.688;2023-07-08T03:55:37;8.00;;;4.57;;
55784;SDS011;41709;52.536;5.688;2023-07-08T03:58:02;8.40;;;5.07;;
55784;SDS011;41709;52.536;5.688;2023-07-08T04:00:28;8.43;;;4.63;;
55784;SDS011;41709;52.536;5.688;2023-07-08T04:02:53;7.10;;;4.20;;
55784;SDS011;41709;52.536;5.688;2023-07-08T04:05:20;10.40;;;4.93;;
55784;SDS011;41709;52.536;5.688;2023-07-08T04:07:48;6.80;;;4.30;;
55784;SDS011;41709;52.536;5.688;2023-07-08T04:10:14;7.68;;;5.10;;
55784;SDS011;41709;52.536;5.688;2023-07-08T04:12:40;9.50;;;5.10;;
55784;SDS011;41709;52.536;5.688;2023-07-08T04:15:07;8.70;;;4.47;;
55784;SDS011;41709;52.536;5.688;2023-07-08T04:17:35;8.30;;;4.80;;
55784;SDS011;41709;52.536;5.688;2023-07-08T04:20:10;6.65;;;4.20;;
55784;SDS011;41709;52.536;5.688;2023-07-08T04:22:39;6.53;;;4.72;;
55784;SDS011;41709;52.536;5.688;2023-07-08T04:25:05;8.98;;;4.45;;
55784;SDS011;41709;52.536;5.688;2023-07-08T04:27:30;15.20;;;4.75;;
55784;SDS011;41709;52.536;5.688;2023-07-08T04:29:56;8.93;;;3.83;;
55784;SDS011;41709;52.536;5.688;2023-07-08T04:32:22;7.47;;;4.43;;
55784;SDS011;41709;52.536;5.688;2023-07-08T04:34:51;7.10;;;4.90;;
55784;SDS011;41709;52.536;5.688;2023-07-08T04:37:17;10.25;;;5.03;;
55784;SDS011;41709;52.536;5.688;2023-07-08T04:39:44;10.80;;;4.72;;
55784;SDS011;41709;52.536;5.688;2023-07-08T04:42:09;7.13;;;3.92;;
55784;SDS011;41709;52.536;5.688;2023-07-08T04:44:38;11.02;;;5.05;;
55784;SDS011;41709;52.536;5.688;2023-07-08T04:47:03;7.88;;;4.50;;
55784;SDS011;41709;52.536;5.688;2023-07-08T04:49:29;5.75;;;4.28;;
55784;SDS011;41709;52.536;5.688;2023-07-08T04:51:58;6.22;;;5.05;;
55784;SDS011;41709;52.536;5.688;2023-07-08T04:54:29;8.57;;;4.45;;
55784;SDS011;41709;52.536;5.688;2023-07-08T04:56:55;9.30;;;4.95;;
55784;SDS011;41709;52.536;5.688;2023-07-08T04:59:22;8.68;;;4.82;;
55784;SDS011;41709;52.536;5.688;2023-07-08T05:01:48;5.97;;;4.00;;
55784;SDS011;41709;52.536;5.688;2023-07-08T05:04:15;9.15;;;4.57;;
55784;SDS011;41709;52.536;5.688;2023-07-08T05:06:42;6.30;;;4.82;;
55784;SDS011;41709;52.536;5.688;2023-07-08T05:09:09;7.07;;;4.30;;
55784;SDS011;41709;52.536;5.688;2023-07-08T05:11:35;8.05;;;4.53;;
55784;SDS011;41709;52.536;5.688;2023-07-08T05:14:01;8.27;;;4.72;;
55784;SDS011;41709;52.536;5.688;2023-07-08T05:16:28;7.15;;;4.38;;
55784;SDS011;41709;52.536;5.688;2023-07-08T05:18:54;5.13;;;4.20;;
55784;SDS011;41709;52.536;5.688;2023-07-08T05:21:20;7.45;;;4.47;;
55784;SDS011;41709;52.536;5.688;2023-07-08T05:23:46;8.98;;;3.80;;
55784;SDS011;41709;52.536;5.688;2023-07-08T05:26:14;7.20;;;3.88;;
55784;SDS011;41709;52.536;5.688;2023-07-08T05:28:40;5.88;;;4.18;;
55784;SDS011;41709;52.536;5.688;2023-07-08T05:31:06;8.50;;;4.22;;
55784;SDS011;41709;52.536;5.688;2023-07-08T05:33:32;7.25;;;4.28;;
55784;SDS011;41709;52.536;5.688;2023-07-08T05:35:58;6.97;;;4.50;;
55784;SDS011;41709;52.536;5.688;2023-07-08T05:38:24;5.55;;;3.67;;
55784;SDS011;41709;52.536;5.688;2023-07-08T05:40:50;9.23;;;4.10;;
55784;SDS011;41709;52.536;5.688;2023-07-08T05:43:19;6.38;;;4.07;;
55784;SDS011;41709;52.536;5.688;2023-07-08T05:45:45;7.10;;;4.03;;
55784;SDS011;41709;52.536;5.688;2023-07-08T05:48:11;5.53;;;3.97;;
55784;SDS011;41709;52.536;5.688;2023-07-08T05:50:37;6.35;;;3.60;;
55784;SDS011;41709;52.536;5.688;2023-07-08T05:53:04;6.07;;;3.80;;
55784;SDS011;41709;52.536;5.688;2023-07-08T05:55:30;7.25;;;4.30;;
55784;SDS011;41709;52.536;5.688;2023-07-08T05:57:57;6.82;;;3.67;;
55784;SDS011;41709;52.536;5.688;2023-07-08T06:00:22;7.25;;;3.67;;
55784;SDS011;41709;52.536;5.688;2023-07-08T06:02:48;5.00;;;3.50;;
55784;SDS011;41709;52.536;5.688;2023-07-08T06:05:14;5.47;;;3.78;;
55784;SDS011;41709;52.536;5.688;2023-07-08T06:07:40;10.10;;;4.43;;
55784;SDS011;41709;52.536;5.688;2023-07-08T06:10:06;7.35;;;4.32;;
55784;SDS011;41709;52.536;5.688;2023-07-08T06:12:32;5.80;;;3.60;;
55784;SDS011;41709;52.536;5.688;2023-07-08T06:14:57;6.82;;;4.55;;
55784;SDS011;41709;52.536;5.688;2023-07-08T06:17:23;6.50;;;3.78;;
55784;SDS011;41709;52.536;5.688;2023-07-08T06:19:49;7.40;;;3.63;;
55784;SDS011;41709;52.536;5.688;2023-07-08T06:22:14;6.28;;;3.83;;
55784;SDS011;41709;52.536;5.688;2023-07-08T06:24:40;6.20;;;3.17;;
55784;SDS011;41709;52.536;5.688;2023-07-08T06:27:06;6.43;;;4.32;;
55784;SDS011;41709;52.536;5.688;2023-07-08T06:29:32;4.60;;;3.65;;
55784;SDS011;41709;52.536;5.688;2023-07-08T06:31:59;5.55;;;3.83;;
55784;SDS011;41709;52.536;5.688;2023-07-08T06:34:24;4.85;;;3.40;;
55784;SDS011;41709;52.536;5.688;2023-07-08T06:36:50;4.68;;;3.50;;
55784;SDS011;41709;52.536;5.688;2023-07-08T06:39:16;4.90;;;3.22;;
55784;SDS011;41709;52.536;5.688;2023-07-08T06:41:42;5.43;;;3.83;;
55784;SDS011;41709;52.536;5.688;2023-07-08T06:44:08;5.75;;;3.72;;
55784;SDS011;41709;52.536;5.688;2023-07-08T06:46:34;5.78;;;3.63;;
55784;SDS011;41709;52.536;5.688;2023-07-08T06:49:00;5.70;;;3.50;;
55784;SDS011;41709;52.536;5.688;2023-07-08T06:51:26;5.63;;;3.85;;
55784;SDS011;41709;52.536;5.688;2023-07-08T06:53:52;5.35;;;3.58;;
55784;SDS011;41709;52.536;5.688;2023-07-08T06:56:17;4.95;;;3.25;;
55784;SDS011;41709;52.536;5.688;2023-07-08T06:58:43;8.32;;;3.80;;
55784;SDS011;41709;52.536;5.688;2023-07-08T07:01:09;9.88;;;3.35;;
55784;SDS011;41709;52.536;5.688;2023-07-08T07:03:34;5.00;;;3.67;;
55784;SDS011;41709;52.536;5.688;2023-07-08T07:06:00;7.07;;;4.20;;
55784;SDS011;41709;52.536;5.688;2023-07-08T07:08:25;7.28;;;3.30;;
55784;SDS011;41709;52.536;5.688;2023-07-08T07:10:51;8.80;;;3.60;;
55784;SDS011;41709;52.536;5.688;2023-07-08T07:13:17;4.95;;;3.50;;
55784;SDS011;41709;52.536;5.688;2023-07-08T07:15:42;6.32;;;3.70;;
55784;SDS011;41709;52.536;5.688;2023-07-08T07:18:08;5.50;;;3.70;;
55784;SDS011;41709;52.536;5.688;2023-07-08T07:20:35;3.17;;;2.75;;
55784;SDS011;41709;52.536;5.688;2023-07-08T07:23:02;5.25;;;3.85;;
55784;SDS011;41709;52.536;5.688;2023-07-08T07:25:28;6.15;;;3.28;;
55784;SDS011;41709;52.536;5.688;2023-07-08T07:27:53;5.28;;;3.08;;
55784;SDS011;41709;52.536;5.688;2023-07-08T07:30:19;6.30;;;3.45;;
55784;SDS011;41709;52.536;5.688;2023-07-08T07:32:45;6.93;;;3.63;;
55784;SDS011;41709;52.536;5.688;2023-07-08T07:35:11;6.20;;;3.60;;
55784;SDS011;41709;52.536;5.688;2023-07-08T07:37:39;7.53;;;3.67;;
55784;SDS011;41709;52.536;5.688;2023-07-08T07:40:06;4.25;;;2.92;;
55784;SDS011;41709;52.536;5.688;2023-07-08T07:42:37;5.07;;;3.60;;
55784;SDS011;41709;52.536;5.688;2023-07-08T07:45:07;5.50;;;3.22;;
55784;SDS011;41709;52.536;5.688;2023-07-08T07:47:34;4.63;;;2.80;;
55784;SDS011;41709;52.536;5.688;2023-07-08T07:50:00;4.75;;;2.90;;
55784;SDS011;41709;52.536;5.688;2023-07-08T07:52:27;3.53;;;2.90;;
55784;SDS011;41709;52.536;5.688;2023-07-08T07:54:53;4.97;;;2.50;;
55784;SDS011;41709;52.536;5.688;2023-07-08T07:57:20;3.92;;;3.05;;
55784;SDS011;41709;52.536;5.688;2023-07-08T07:59:46;4.30;;;2.70;;
55784;SDS011;41709;52.536;5.688;2023-07-08T08:02:13;5.78;;;2.38;;
55784;SDS011;41709;52.536;5.688;2023-07-08T08:04:40;3.90;;;2.55;;
55784;SDS011;41709;52.536;5.688;2023-07-08T08:07:05;4.50;;;2.90;;
55784;SDS011;41709;52.536;5.688;2023-07-08T08:09:31;5.30;;;3.20;;
55784;SDS011;41709;52.536;5.688;2023-07-08T08:11:56;3.65;;;2.80;;
55784;SDS011;41709;52.536;5.688;2023-07-08T08:14:22;5.50;;;2.55;;
55784;SDS011;41709;52.536;5.688;2023-07-08T08:16:47;6.00;;;2.53;;
55784;SDS011;41709;52.536;5.688;2023-07-08T08:19:13;3.25;;;2.20;;
55784;SDS011;41709;52.536;5.688;2023-07-08T08:21:39;2.88;;;2.45;;
55784;SDS011;41709;52.536;5.688;2023-07-08T08:24:04;4.93;;;2.63;;
55784;SDS011;41709;52.536;5.688;2023-07-08T08:26:30;5.00;;;3.13;;
55784;SDS011;41709;52.536;5.688;2023-07-08T08:28:56;6.25;;;2.97;;
55784;SDS011;41709;52.536;5.688;2023-07-08T08:31:22;6.28;;;2.22;;
55784;SDS011;41709;52.536;5.688;2023-07-08T08:33:49;3.95;;;2.83;;
55784;SDS011;41709;52.536;5.688;2023-07-08T08:36:16;3.58;;;2.38;;
55784;SDS011;41709;52.536;5.688;2023-07-08T08:38:42;6.20;;;3.00;;
55784;SDS011;41709;52.536;5.688;2023-07-08T08:41:14;4.35;;;2.25;;
55784;SDS011;41709;52.536;5.688;2023-07-08T08:43:42;5.68;;;2.70;;
55784;SDS011;41709;52.536;5.688;2023-07-08T08:46:13;3.60;;;2.95;;
55784;SDS011;41709;52.536;5.688;2023-07-08T08:48:53;3.25;;;2.75;;
55784;SDS011;41709;52.536;5.688;2023-07-08T08:51:24;4.78;;;2.60;;
55784;SDS011;41709;52.536;5.688;2023-07-08T08:53:52;3.88;;;2.80;;
55784;SDS011;41709;52.536;5.688;2023-07-08T08:56:22;3.85;;;2.88;;
55784;SDS011;41709;52.536;5.688;2023-07-08T09:01:21;3.05;;;2.75;;
55784;SDS011;41709;52.536;5.688;2023-07-08T09:03:49;6.25;;;2.88;;
55784;SDS011;41709;52.536;5.688;2023-07-08T09:09:04;3.03;;;2.33;;
55784;SDS011;41709;52.536;5.688;2023-07-08T09:11:47;4.28;;;2.47;;
55784;SDS011;41709;52.536;5.688;2023-07-08T09:14:23;3.28;;;2.33;;
55784;SDS011;41709;52.536;5.688;2023-07-08T09:16:56;3.38;;;2.78;;
55784;SDS011;41709;52.536;5.688;2023-07-08T09:19:37;3.65;;;3.15;;
55784;SDS011;41709;52.536;5.688;2023-07-08T09:22:35;5.47;;;2.80;;
55784;SDS011;41709;52.536;5.688;2023-07-08T09:28:09;4.10;;;2.85;;
55784;SDS011;41709;52.536;5.688;2023-07-08T09:30:37;3.33;;;2.53;;
55784;SDS011;41709;52.536;5.688;2023-07-08T09:33:04;4.60;;;3.25;;
55784;SDS011;41709;52.536;5.688;2023-07-08T09:35:39;4.45;;;2.70;;
55784;SDS011;41709;52.536;5.688;2023-07-08T09:38:15;4.15;;;2.97;;
55784;SDS011;41709;52.536;5.688;2023-07-08T09:40:49;5.40;;;3.05;;
55784;SDS011;41709;52.536;5.688;2023-07-08T09:46:03;5.28;;;2.85;;
55784;SDS011;41709;52.536;5.688;2023-07-08T09:48:29;6.43;;;3.28;;
55784;SDS011;41709;52.536;5.688;2023-07-08T09:51:00;3.90;;;3.10;;
55784;SDS011;41709;52.536;5.688;2023-07-08T09:53:26;8.48;;;3.47;;
55784;SDS011;41709;52.536;5.688;2023-07-08T09:55:52;7.50;;;3.28;;
55784;SDS011;41709;52.536;5.688;2023-07-08T10:00:51;5.75;;;2.97;;
55784;SDS011;41709;52.536;5.688;2023-07-08T10:03:22;7.30;;;2.60;;
55784;SDS011;41709;52.536;5.688;2023-07-08T10:05:51;6.90;;;2.90;;
55784;SDS011;41709;52.536;5.688;2023-07-08T10:08:22;2.83;;;2.60;;
55784;SDS011;41709;52.536;5.688;2023-07-08T10:10:58;5.20;;;2.63;;
55784;SDS011;41709;52.536;5.688;2023-07-08T10:13:33;5.03;;;3.08;;
55784;SDS011;41709;52.536;5.688;2023-07-08T10:16:13;3.40;;;2.88;;
55784;SDS011;41709;52.536;5.688;2023-07-08T10:18:40;4.88;;;2.90;;
55784;SDS011;41709;52.536;5.688;2023-07-08T10:26:33;3.42;;;3.03;;
55784;SDS011;41709;52.536;5.688;2023-07-08T10:32:05;7.13;;;3.58;;
55784;SDS011;41709;52.536;5.688;2023-07-08T10:34:47;4.20;;;2.88;;
55784;SDS011;41709;52.536;5.688;2023-07-08T10:43:14;6.05;;;3.42;;
55784;SDS011;41709;52.536;5.688;2023-07-08T10:48:52;6.32;;;3.78;;
55784;SDS011;41709;52.536;5.688;2023-07-08T11:02:15;5.03;;;3.95;;
55784;SDS011;41709;52.536;5.688;2023-07-08T11:04:59;6.75;;;3.83;;
55784;SDS011;41709;52.536;5.688;2023-07-08T11:07:55;8.00;;;3.90;;
55784;SDS011;41709;52.536;5.688;2023-07-08T11:12:59;3.80;;;3.38;;
55784;SDS011;41709;52.536;5.688;2023-07-08T11:15:46;8.45;;;3.83;;
55784;SDS011;41709;52.536;5.688;2023-07-08T11:18:26;6.93;;;3.90;;
55784;SDS011;41709;52.536;5.688;2023-07-08T11:23:43;6.43;;;3.95;;
55784;SDS011;41709;52.536;5.688;2023-07-08T11:28:53;6.00;;;3.78;;
55784;SDS011;41709;52.536;5.688;2023-07-08T11:31:22;4.93;;;3.80;;
55784;SDS011;41709;52.536;5.688;2023-07-08T11:33:49;7.93;;;4.10;;
55784;SDS011;41709;52.536;5.688;2023-07-08T11:36:15;5.93;;;3.90;;
55784;SDS011;41709;52.536;5.688;2023-07-08T11:38:54;5.47;;;3.95;;
55784;SDS011;41709;52.536;5.688;2023-07-08T11:41:22;7.65;;;3.78;;
55784;SDS011;41709;52.536;5.688;2023-07-08T11:43:56;6.40;;;4.35;;
55784;SDS011;41709;52.536;5.688;2023-07-08T11:46:30;5.88;;;4.20;;
55784;SDS011;41709;52.536;5.688;2023-07-08T11:49:00;5.30;;;3.97;;
55784;SDS011;41709;52.536;5.688;2023-07-08T11:51:29;5.38;;;4.30;;
55784;SDS011;41709;52.536;5.688;2023-07-08T11:56:46;6.47;;;4.30;;
55784;SDS011;41709;52.536;5.688;2023-07-08T11:59:18;5.63;;;4.20;;
55784;SDS011;41709;52.536;5.688;2023-07-08T12:01:46;5.00;;;4.22;;
55784;SDS011;41709;52.536;5.688;2023-07-08T12:04:24;5.03;;;4.05;;
55784;SDS011;41709;52.536;5.688;2023-07-08T12:09:58;7.00;;;3.88;;
55784;SDS011;41709;52.536;5.688;2023-07-08T12:12:30;6.18;;;4.60;;
55784;SDS011;41709;52.536;5.688;2023-07-08T12:14:59;6.00;;;4.32;;
55784;SDS011;41709;52.536;5.688;2023-07-08T12:17:35;6.20;;;4.10;;
55784;SDS011;41709;52.536;5.688;2023-07-08T12:20:03;5.55;;;4.78;;
55784;SDS011;41709;52.536;5.688;2023-07-08T12:22:38;5.90;;;4.40;;
55784;SDS011;41709;52.536;5.688;2023-07-08T12:25:07;7.20;;;4.45;;
55784;SDS011;41709;52.536;5.688;2023-07-08T12:27:38;9.00;;;3.88;;
55784;SDS011;41709;52.536;5.688;2023-07-08T12:30:03;6.60;;;4.82;;
55784;SDS011;41709;52.536;5.688;2023-07-08T12:32:29;7.25;;;4.50;;
55784;SDS011;41709;52.536;5.688;2023-07-08T12:34:55;6.45;;;3.97;;
55784;SDS011;41709;52.536;5.688;2023-07-08T12:37:21;5.50;;;4.80;;
55784;SDS011;41709;52.536;5.688;2023-07-08T12:39:54;8.85;;;4.10;;
55784;SDS011;41709;52.536;5.688;2023-07-08T12:42:21;8.73;;;4.22;;
55784;SDS011;41709;52.536;5.688;2023-07-08T12:44:47;5.43;;;4.05;;
55784;SDS011;41709;52.536;5.688;2023-07-08T12:47:13;5.60;;;3.92;;
55784;SDS011;41709;52.536;5.688;2023-07-08T12:49:39;6.03;;;4.80;;
55784;SDS011;41709;52.536;5.688;2023-07-08T12:52:05;5.88;;;4.75;;
55784;SDS011;41709;52.536;5.688;2023-07-08T12:54:30;4.82;;;3.85;;
55784;SDS011;41709;52.536;5.688;2023-07-08T12:56:58;4.67;;;4.03;;
55784;SDS011;41709;52.536;5.688;2023-07-08T12:59:24;5.82;;;4.40;;
55784;SDS011;41709;52.536;5.688;2023-07-08T13:01:50;7.75;;;5.07;;
55784;SDS011;41709;52.536;5.688;2023-07-08T13:04:17;5.18;;;4.50;;
55784;SDS011;41709;52.536;5.688;2023-07-08T13:06:44;5.80;;;4.57;;
55784;SDS011;41709;52.536;5.688;2023-07-08T13:09:31;4.72;;;4.15;;
55784;SDS011;41709;52.536;5.688;2023-07-08T13:12:03;4.63;;;3.75;;
55784;SDS011;41709;52.536;5.688;2023-07-08T13:14:37;6.22;;;4.65;;
55784;SDS011;41709;52.536;5.688;2023-07-08T13:17:08;7.95;;;4.28;;
55784;SDS011;41709;52.536;5.688;2023-07-08T13:19:35;6.53;;;4.57;;
55784;SDS011;41709;52.536;5.688;2023-07-08T13:22:02;6.50;;;4.75;;
55784;SDS011;41709;52.536;5.688;2023-07-08T13:24:29;6.28;;;4.38;;
55784;SDS011;41709;52.536;5.688;2023-07-08T13:26:58;4.93;;;4.38;;
55784;SDS011;41709;52.536;5.688;2023-07-08T13:29:23;8.52;;;4.85;;
55784;SDS011;41709;52.536;5.688;2023-07-08T13:31:56;7.25;;;4.53;;
55784;SDS011;41709;52.536;5.688;2023-07-08T13:34:27;8.27;;;5.38;;
55784;SDS011;41709;52.536;5.688;2023-07-08T13:36:53;9.85;;;5.63;;
55784;SDS011;41709;52.536;5.688;2023-07-08T13:39:29;7.50;;;5.10;;
55784;SDS011;41709;52.536;5.688;2023-07-08T13:41:57;7.05;;;4.35;;
55784;SDS011;41709;52.536;5.688;2023-07-08T13:44:24;4.80;;;4.30;;
55784;SDS011;41709;52.536;5.688;2023-07-08T13:49:21;8.23;;;5.45;;
55784;SDS011;41709;52.536;5.688;2023-07-08T13:51:47;7.40;;;4.72;;
55784;SDS011;41709;52.536;5.688;2023-07-08T13:54:15;6.38;;;4.82;;
55784;SDS011;41709;52.536;5.688;2023-07-08T13:56:46;6.85;;;5.38;;
55784;SDS011;41709;52.536;5.688;2023-07-08T13:59:17;7.55;;;5.30;;
55784;SDS011;41709;52.536;5.688;2023-07-08T14:01:44;8.90;;;5.07;;
55784;SDS011;41709;52.536;5.688;2023-07-08T14:04:16;6.80;;;5.35;;
55784;SDS011;41709;52.536;5.688;2023-07-08T14:06:44;5.95;;;4.70;;
55784;SDS011;41709;52.536;5.688;2023-07-08T14:09:15;7.43;;;4.90;;
55784;SDS011;41709;52.536;5.688;2023-07-08T14:11:45;8.90;;;4.85;;
55784;SDS011;41709;52.536;5.688;2023-07-08T14:14:12;6.30;;;4.95;;
55784;SDS011;41709;52.536;5.688;2023-07-08T14:16:39;6.53;;;5.30;;
55784;SDS011;41709;52.536;5.688;2023-07-08T14:19:10;6.28;;;5.25;;
55784;SDS011;41709;52.536;5.688;2023-07-08T14:21:42;7.40;;;5.40;;
55784;SDS011;41709;52.536;5.688;2023-07-08T14:24:11;7.90;;;5.25;;
55784;SDS011;41709;52.536;5.688;2023-07-08T14:26:40;7.35;;;5.43;;
55784;SDS011;41709;52.536;5.688;2023-07-08T14:29:07;6.55;;;4.72;;
55784;SDS011;41709;52.536;5.688;2023-07-08T14:31:33;9.25;;;4.68;;
55784;SDS011;41709;52.536;5.688;2023-07-08T14:34:01;8.18;;;5.03;;
55784;SDS011;41709;52.536;5.688;2023-07-08T14:36:29;5.75;;;4.82;;
55784;SDS011;41709;52.536;5.688;2023-07-08T14:38:55;6.93;;;5.40;;
55784;SDS011;41709;52.536;5.688;2023-07-08T14:41:20;7.45;;;5.05;;
55784;SDS011;41709;52.536;5.688;2023-07-08T14:43:46;6.47;;;4.65;;
55784;SDS011;41709;52.536;5.688;2023-07-08T14:46:11;7.35;;;4.82;;
55784;SDS011;41709;52.536;5.688;2023-07-08T14:48:37;5.70;;;5.10;;
55784;SDS011;41709;52.536;5.688;2023-07-08T14:51:02;5.82;;;4.93;;
55784;SDS011;41709;52.536;5.688;2023-07-08T14:53:28;9.82;;;5.18;;
55784;SDS011;41709;52.536;5.688;2023-07-08T14:55:54;5.50;;;4.63;;
55784;SDS011;41709;52.536;5.688;2023-07-08T15:00:48;7.47;;;4.93;;
55784;SDS011;41709;52.536;5.688;2023-07-08T15:03:14;7.20;;;4.90;;
55784;SDS011;41709;52.536;5.688;2023-07-08T15:05:41;9.05;;;4.85;;
55784;SDS011;41709;52.536;5.688;2023-07-08T15:08:07;5.65;;;4.80;;
55784;SDS011;41709;52.536;5.688;2023-07-08T15:10:33;6.43;;;5.32;;
55784;SDS011;41709;52.536;5.688;2023-07-08T15:13:01;7.30;;;4.82;;
55784;SDS011;41709;52.536;5.688;2023-07-08T15:15:28;5.82;;;5.00;;
55784;SDS011;41709;52.536;5.688;2023-07-08T15:17:59;5.40;;;4.55;;
55784;SDS011;41709;52.536;5.688;2023-07-08T15:20:31;7.95;;;5.00;;
55784;SDS011;41709;52.536;5.688;2023-07-08T15:22:57;5.50;;;4.93;;
55784;SDS011;41709;52.536;5.688;2023-07-08T15:25:22;7.25;;;4.78;;
55784;SDS011;41709;52.536;5.688;2023-07-08T15:27:51;16.40;;;4.65;;
55784;SDS011;41709;52.536;5.688;2023-07-08T15:30:19;5.97;;;4.60;;
55784;SDS011;41709;52.536;5.688;2023-07-08T15:32:47;7.43;;;4.57;;
55784;SDS011;41709;52.536;5.688;2023-07-08T15:35:14;6.63;;;4.93;;
55784;SDS011;41709;52.536;5.688;2023-07-08T15:37:42;5.95;;;4.75;;
55784;SDS011;41709;52.536;5.688;2023-07-08T15:40:09;7.43;;;4.60;;
55784;SDS011;41709;52.536;5.688;2023-07-08T15:42:38;6.35;;;4.93;;
55784;SDS011;41709;52.536;5.688;2023-07-08T15:47:51;5.45;;;4.90;;
55784;SDS011;41709;52.536;5.688;2023-07-08T15:50:18;4.93;;;4.43;;
55784;SDS011;41709;52.536;5.688;2023-07-08T15:52:46;5.03;;;4.25;;
55784;SDS011;41709;52.536;5.688;2023-07-08T15:55:14;9.02;;;4.90;;
55784;SDS011;41709;52.536;5.688;2023-07-08T15:57:45;6.38;;;4.55;;
55784;SDS011;41709;52.536;5.688;2023-07-08T16:00:17;8.05;;;4.82;;